sensor_id;sensor_type;location;lat;lon;timestamp;P1;durP1;ratioP1;P2;durP2;ratioP2
76837;SDS011;65797;47.352;8.164;2023-09-08T08:51:10;10.80;;;9.50;;
76837;SDS011;65797;47.352;8.164;2023-09-08T08:53:36;21.53;;;10.07;;
76837;SDS011;65797;47.352;8.164;2023-09-08T08:56:04;12.90;;;9.87;;
76837;SDS011;65797;47.352;8.164;2023-09-08T08:58:33;16.30;;;9.57;;
76837;SDS011;65797;47.352;8.164;2023-09-08T09:01:00;18.30;;;10.00;;
76837;SDS011;65797;47.352;8.164;2023-09-08T09:03:28;13.30;;;9.30;;
76837;SDS011;65797;47.352;8.164;2023-09-08T09:05:54;10.67;;;9.57;;
76837;SDS011;65797;47.352;8.164;2023-09-08T09:08:20;11.50;;;10.33;;
76837;SDS011;65797;47.352;8.164;2023-09-08T09:10:48;19.40;;;10.73;;
76837;SDS011;65797;47.352;8.164;2023-09-08T09:13:15;10.00;;;8.97;;
76837;SDS011;65797;47.352;8.164;2023-09-08T09:15:41;14.33;;;9.83;;
76837;SDS011;65797;47.352;8.164;2023-09-08T09:18:09;14.10;;;9.40;;
76837;SDS011;65797;47.352;8.164;2023-09-08T09:20:35;11.97;;;9.07;;
76837;SDS011;65797;47.352;8.164;2023-09-08T09:23:01;11.00;;;9.50;;
76837;SDS011;65797;47.352;8.164;2023-09-08T09:25:28;17.60;;;9.53;;
76837;SDS011;65797;47.352;8.164;2023-09-08T09:28:02;18.63;;;10.03;;
76837;SDS011;65797;47.352;8.164;2023-09-08T09:30:28;12.83;;;8.60;;
76837;SDS011;65797;47.352;8.164;2023-09-08T09:33:14;9.20;;;8.33;;
76837;SDS011;65797;47.352;8.164;2023-09-08T09:35:45;13.00;;;8.77;;
76837;SDS011;65797;47.352;8.164;2023-09-08T09:38:12;13.67;;;8.03;;
76837;SDS011;65797;47.352;8.164;2023-09-08T09:40:38;8.90;;;6.50;;
76837;SDS011;65797;47.352;8.164;2023-09-08T09:43:05;7.43;;;6.70;;
76837;SDS011;65797;47.352;8.164;2023-09-08T09:45:33;7.73;;;6.77;;
76837;SDS011;65797;47.352;8.164;2023-09-08T09:47:59;7.87;;;6.90;;
76837;SDS011;65797;47.352;8.164;2023-09-08T09:50:28;8.73;;;7.40;;
76837;SDS011;65797;47.352;8.164;2023-09-08T09:53:13;7.37;;;6.57;;
76837;SDS011;65797;47.352;8.164;2023-09-08T09:55:41;8.07;;;6.80;;
76837;SDS011;65797;47.352;8.164;2023-09-08T09:58:08;9.90;;;6.47;;
76837;SDS011;65797;47.352;8.164;2023-09-08T10:00:35;8.03;;;6.60;;
76837;SDS011;65797;47.352;8.164;2023-09-08T10:03:12;7.97;;;6.40;;
76837;SDS011;65797;47.352;8.164;2023-09-08T10:05:39;7.83;;;5.90;;
76837;SDS011;65797;47.352;8.164;2023-09-08T10:08:05;13.47;;;6.70;;
76837;SDS011;65797;47.352;8.164;2023-09-08T10:10:32;10.33;;;7.40;;
76837;SDS011;65797;47.352;8.164;2023-09-08T13:39:37;7.00;;;5.23;;
76837;SDS011;65797;47.352;8.164;2023-09-08T14:55:45;3.90;;;3.60;;
76837;SDS011;65797;47.352;8.164;2023-09-08T15:01:01;4.97;;;4.47;;
76837;SDS011;65797;47.352;8.164;2023-09-08T15:03:29;6.23;;;4.53;;
76837;SDS011;65797;47.352;8.164;2023-09-08T16:00:16;4.17;;;3.87;;
76837;SDS011;65797;47.352;8.164;2023-09-08T16:02:42;3.80;;;3.40;;
76837;SDS011;65797;47.352;8.164;2023-09-08T16:05:08;4.07;;;3.67;;
76837;SDS011;65797;47.352;8.164;2023-09-08T16:07:35;4.67;;;3.57;;
76837;SDS011;65797;47.352;8.164;2023-09-08T16:10:01;5.10;;;4.10;;
76837;SDS011;65797;47.352;8.164;2023-09-08T16:12:27;4.33;;;3.93;;
76837;SDS011;65797;47.352;8.164;2023-09-08T16:14:53;6.40;;;3.70;;
76837;SDS011;65797;47.352;8.164;2023-09-08T16:17:19;5.60;;;3.90;;
76837;SDS011;65797;47.352;8.164;2023-09-08T16:19:46;7.60;;;4.23;;
76837;SDS011;65797;47.352;8.164;2023-09-08T16:42:54;6.10;;;3.77;;
76837;SDS011;65797;47.352;8.164;2023-09-08T16:45:21;4.97;;;4.27;;
76837;SDS011;65797;47.352;8.164;2023-09-08T16:47:46;4.93;;;3.60;;
76837;SDS011;65797;47.352;8.164;2023-09-08T16:50:12;4.10;;;3.53;;
76837;SDS011;65797;47.352;8.164;2023-09-08T16:52:38;3.77;;;3.47;;
76837;SDS011;65797;47.352;8.164;2023-09-08T16:55:03;4.30;;;3.93;;
76837;SDS011;65797;47.352;8.164;2023-09-08T16:57:35;7.30;;;5.00;;
76837;SDS011;65797;47.352;8.164;2023-09-08T17:00:02;6.47;;;5.33;;
76837;SDS011;65797;47.352;8.164;2023-09-08T17:02:28;8.70;;;5.67;;
76837;SDS011;65797;47.352;8.164;2023-09-08T17:04:54;5.20;;;4.70;;
76837;SDS011;65797;47.352;8.164;2023-09-08T17:07:20;6.17;;;5.57;;
76837;SDS011;65797;47.352;8.164;2023-09-08T17:09:46;5.57;;;5.07;;
76837;SDS011;65797;47.352;8.164;2023-09-08T17:12:12;5.63;;;5.13;;
76837;SDS011;65797;47.352;8.164;2023-09-08T17:14:37;6.03;;;5.40;;
76837;SDS011;65797;47.352;8.164;2023-09-08T17:17:03;6.33;;;5.23;;
76837;SDS011;65797;47.352;8.164;2023-09-08T17:19:29;5.60;;;4.37;;
76837;SDS011;65797;47.352;8.164;2023-09-08T17:21:54;8.70;;;4.80;;
76837;SDS011;65797;47.352;8.164;2023-09-08T17:24:20;5.10;;;4.60;;
76837;SDS011;65797;47.352;8.164;2023-09-08T17:26:47;4.67;;;4.30;;
76837;SDS011;65797;47.352;8.164;2023-09-08T17:29:13;4.07;;;3.77;;
76837;SDS011;65797;47.352;8.164;2023-09-08T17:31:39;6.43;;;4.67;;
76837;SDS011;65797;47.352;8.164;2023-09-08T17:34:08;4.07;;;3.77;;
76837;SDS011;65797;47.352;8.164;2023-09-08T17:36:45;4.33;;;3.93;;
76837;SDS011;65797;47.352;8.164;2023-09-08T17:39:12;5.90;;;5.10;;
76837;SDS011;65797;47.352;8.164;2023-09-08T17:41:39;4.37;;;3.93;;
76837;SDS011;65797;47.352;8.164;2023-09-08T17:44:06;3.80;;;3.50;;
76837;SDS011;65797;47.352;8.164;2023-09-08T17:46:31;7.23;;;4.33;;
76837;SDS011;65797;47.352;8.164;2023-09-08T17:48:58;11.90;;;4.57;;
76837;SDS011;65797;47.352;8.164;2023-09-08T17:51:24;7.90;;;4.23;;
76837;SDS011;65797;47.352;8.164;2023-09-08T17:53:49;7.10;;;3.97;;
76837;SDS011;65797;47.352;8.164;2023-09-08T17:56:15;6.83;;;3.67;;
76837;SDS011;65797;47.352;8.164;2023-09-08T17:58:41;11.03;;;4.67;;
76837;SDS011;65797;47.352;8.164;2023-09-08T18:01:06;11.93;;;4.40;;
76837;SDS011;65797;47.352;8.164;2023-09-08T18:03:32;8.40;;;4.53;;
76837;SDS011;65797;47.352;8.164;2023-09-08T18:05:58;4.77;;;3.90;;
76837;SDS011;65797;47.352;8.164;2023-09-08T18:08:23;8.60;;;4.20;;
76837;SDS011;65797;47.352;8.164;2023-09-08T18:10:57;4.13;;;3.73;;
76837;SDS011;65797;47.352;8.164;2023-09-08T18:13:25;5.60;;;4.80;;
76837;SDS011;65797;47.352;8.164;2023-09-08T18:15:56;7.43;;;4.60;;
76837;SDS011;65797;47.352;8.164;2023-09-08T18:18:25;8.03;;;4.70;;
